Time;durP1;ratioP1;P1;durP2;ratioP2;P2;SDS_P1;SDS_P2;PMS_P1;PMS_P2;Temp;Humidity;BMP_temperature;BMP_pressure;BME280_temperature;BME280_humidity;BME280_pressure;Samples;Min_cycle;Max_cycle;Signal;HPM_P1;HPM_P2
2021/07/01 00:01:02;;;;;;;26.20;14.60;;;14.60;99.90;;;;;;5085576;28;20035;-63
2021/07/01 00:20:40;;;;;;;23.88;12.13;;;14.40;99.90;;;;;;5093658;28;20115;-62
2021/07/01 00:23:06;;;;;;;20.52;11.55;;;14.40;99.90;;;;;;5085964;28;20020;-63
2021/07/01 00:25:33;;;;;;;23.15;11.50;;;14.50;99.90;;;;;;5072380;28;20023;-64
2021/07/01 00:27:59;;;;;;;22.33;10.43;;;14.50;99.90;;;;;;5089107;28;20398;-64
2021/07/01 00:30:25;;;;;;;19.02;10.65;;;14.50;99.90;;;;;;5090427;28;20025;-64
2021/07/01 00:32:50;;;;;;;19.23;11.40;;;14.50;99.90;;;;;;5085652;28;20439;-62
2021/07/01 00:35:16;;;;;;;19.90;10.52;;;14.50;99.90;;;;;;5078567;28;20063;-62
2021/07/01 00:37:43;;;;;;;19.88;11.82;;;14.50;99.90;;;;;;5064888;28;20036;-62
2021/07/01 00:40:11;;;;;;;21.13;11.90;;;14.50;99.90;;;;;;5075551;28;20024;-62
2021/07/01 00:42:37;;;;;;;19.52;11.50;;;14.50;99.90;;;;;;5089770;28;20040;-62
2021/07/01 00:45:04;;;;;;;24.05;11.88;;;14.50;99.90;;;;;;5074608;28;20035;-59
2021/07/01 00:47:30;;;;;;;22.75;12.27;;;14.50;99.90;;;;;;5092165;28;20041;-62
2021/07/01 00:49:55;;;;;;;21.05;12.85;;;14.50;99.90;;;;;;5097844;28;20039;-61
2021/07/01 00:52:21;;;;;;;23.50;13.00;;;14.50;99.90;;;;;;5086749;28;20039;-62
2021/07/01 00:54:47;;;;;;;25.10;14.20;;;14.40;99.90;;;;;;5087463;28;20031;-60
2021/07/01 00:57:12;;;;;;;25.90;14.52;;;14.40;99.90;;;;;;5079517;28;20040;-63
2021/07/01 00:59:38;;;;;;;22.23;13.45;;;14.40;99.90;;;;;;5082217;28;20107;-62
2021/07/01 01:02:05;;;;;;;27.00;14.95;;;14.40;99.90;;;;;;5088673;28;20024;-64
2021/07/01 01:04:31;;;;;;;22.50;13.45;;;14.50;99.90;;;;;;5098074;28;20024;-63
2021/07/01 01:06:57;;;;;;;22.73;13.13;;;14.50;99.90;;;;;;5077436;28;20032;-64
2021/07/01 01:09:22;;;;;;;22.77;13.93;;;14.40;99.90;;;;;;5085946;28;20121;-62
2021/07/01 01:11:48;;;;;;;25.60;15.38;;;14.40;99.90;;;;;;5079669;28;20024;-63
2021/07/01 01:14:14;;;;;;;28.58;14.57;;;14.50;99.90;;;;;;5080137;28;20050;-63
2021/07/01 01:16:39;;;;;;;25.42;13.32;;;14.50;99.90;;;;;;5085678;28;20057;-63
2021/07/01 01:19:05;;;;;;;26.08;14.00;;;14.40;99.90;;;;;;5095248;28;20028;-64
2021/07/01 01:21:31;;;;;;;22.45;12.10;;;14.40;99.90;;;;;;5077782;28;20424;-64
2021/07/01 01:23:58;;;;;;;18.90;11.40;;;14.40;99.90;;;;;;5086517;28;20536;-59
2021/07/01 01:26:24;;;;;;;22.88;12.23;;;14.40;99.90;;;;;;5077792;28;20021;-62
2021/07/01 01:28:51;;;;;;;18.90;11.05;;;14.40;99.90;;;;;;5088258;28;20784;-62
2021/07/01 01:31:17;;;;;;;19.50;10.38;;;14.40;99.90;;;;;;5080790;28;20522;-62
2021/07/01 01:33:43;;;;;;;17.98;10.90;;;14.40;99.90;;;;;;5085479;28;20030;-57
2021/07/01 01:36:08;;;;;;;21.60;11.38;;;14.40;99.90;;;;;;5081632;28;20028;-57
2021/07/01 01:38:34;;;;;;;14.90;10.68;;;14.30;99.90;;;;;;5093167;28;20084;-62
2021/07/01 01:40:59;;;;;;;16.92;10.98;;;14.30;99.90;;;;;;5076556;28;20063;-61
2021/07/01 01:43:25;;;;;;;19.98;10.85;;;14.20;99.90;;;;;;5084814;28;20028;-62
2021/07/01 01:45:52;;;;;;;14.48;10.25;;;14.20;99.90;;;;;;5094376;28;20037;-64
2021/07/01 01:48:18;;;;;;;16.60;10.43;;;14.20;99.90;;;;;;5081292;28;20086;-64
2021/07/01 01:50:43;;;;;;;18.50;11.68;;;14.20;99.90;;;;;;5077408;28;20036;-63
2021/07/01 01:53:10;;;;;;;16.17;10.77;;;14.20;99.90;;;;;;5089108;28;20038;-64
2021/07/01 01:55:37;;;;;;;16.00;10.95;;;14.30;99.90;;;;;;5090157;28;20377;-62
2021/07/01 01:58:03;;;;;;;15.57;10.77;;;14.20;99.90;;;;;;5080654;28;20067;-63
2021/07/01 02:00:30;;;;;;;17.85;11.73;;;14.30;99.90;;;;;;5089487;28;20027;-63
2021/07/01 02:02:56;;;;;;;17.63;10.68;;;14.20;99.90;;;;;;5079987;28;20021;-63
2021/07/01 02:05:22;;;;;;;16.23;11.13;;;14.30;99.90;;;;;;5075513;28;20388;-63
2021/07/01 02:07:48;;;;;;;16.92;10.65;;;14.30;99.90;;;;;;5090484;28;20028;-64
2021/07/01 02:10:21;;;;;;;19.05;12.57;;;14.30;99.90;;;;;;5079182;28;20561;-63
2021/07/01 02:12:48;;;;;;;20.55;11.77;;;14.30;99.90;;;;;;5088222;28;20036;-60
2021/07/01 02:15:16;;;;;;;22.35;11.82;;;14.30;99.90;;;;;;5087793;28;20016;-62
2021/07/01 02:17:42;;;;;;;19.92;11.55;;;14.30;99.90;;;;;;5085942;28;20069;-66
2021/07/01 02:20:10;;;;;;;21.25;11.60;;;14.30;99.90;;;;;;5092009;28;20102;-62
2021/07/01 02:22:36;;;;;;;24.27;13.10;;;14.30;99.90;;;;;;5086352;28;20402;-61
2021/07/01 02:25:02;;;;;;;19.40;11.95;;;14.30;99.90;;;;;;5074109;28;20050;-63
2021/07/01 02:27:28;;;;;;;16.83;11.18;;;14.30;99.90;;;;;;5083547;28;20043;-62
2021/07/01 02:29:53;;;;;;;24.92;12.20;;;14.30;99.90;;;;;;5075167;28;20505;-63
2021/07/01 02:32:19;;;;;;;16.80;12.40;;;14.30;99.90;;;;;;5077182;28;20630;-62
2021/07/01 02:34:45;;;;;;;16.67;11.43;;;14.30;99.90;;;;;;5095483;28;20024;-64
2021/07/01 02:37:12;;;;;;;16.75;12.02;;;14.30;99.90;;;;;;5081987;28;20085;-66
2021/07/01 02:39:39;;;;;;;20.20;12.35;;;14.30;99.90;;;;;;5078631;28;20033;-64
2021/07/01 02:42:05;;;;;;;20.17;11.65;;;14.30;99.90;;;;;;5071029;28;20027;-64
2021/07/01 02:44:31;;;;;;;17.33;11.68;;;14.30;99.90;;;;;;5083780;28;20102;-61
2021/07/01 02:46:57;;;;;;;18.88;12.45;;;14.30;99.90;;;;;;5081849;28;20158;-64
2021/07/01 02:49:23;;;;;;;21.33;11.07;;;14.30;99.90;;;;;;5087210;28;20052;-62
2021/07/01 02:51:48;;;;;;;21.90;12.18;;;14.30;99.90;;;;;;5083341;28;20029;-61
2021/07/01 02:54:15;;;;;;;15.23;11.45;;;14.30;99.90;;;;;;5084619;28;20031;-63
2021/07/01 02:56:41;;;;;;;26.42;12.02;;;14.40;99.90;;;;;;5078780;28;20021;-63
2021/07/01 02:59:08;;;;;;;20.65;11.85;;;14.40;99.90;;;;;;5090213;28;20076;-64
2021/07/01 03:01:34;;;;;;;18.58;11.95;;;14.30;99.90;;;;;;5086964;28;20024;-61
2021/07/01 03:03:59;;;;;;;18.90;11.48;;;14.30;99.90;;;;;;5090440;28;20030;-64
2021/07/01 03:06:25;;;;;;;19.48;12.52;;;14.20;99.90;;;;;;5082599;28;20046;-63
2021/07/01 03:08:52;;;;;;;24.88;12.65;;;14.20;99.90;;;;;;5083683;28;20078;-62
2021/07/01 03:11:17;;;;;;;20.65;12.38;;;14.20;99.90;;;;;;5080419;28;20033;-62
2021/07/01 03:13:43;;;;;;;18.15;12.23;;;14.20;99.90;;;;;;5077603;28;20031;-63
2021/07/01 03:16:08;;;;;;;22.95;13.60;;;14.30;99.90;;;;;;5078817;28;20530;-64
2021/07/01 03:18:34;;;;;;;20.13;13.05;;;14.30;99.90;;;;;;5088544;28;20487;-63
2021/07/01 03:20:59;;;;;;;17.58;12.40;;;14.30;99.90;;;;;;5080321;28;20541;-64
2021/07/01 03:23:25;;;;;;;24.50;13.68;;;14.30;99.90;;;;;;5079770;28;20392;-59
2021/07/01 03:25:50;;;;;;;18.00;11.88;;;14.30;99.90;;;;;;5083673;28;20467;-63
2021/07/01 03:28:16;;;;;;;23.58;13.95;;;14.30;99.90;;;;;;5075704;28;20553;-63
2021/07/01 03:30:41;;;;;;;20.77;13.82;;;14.20;99.90;;;;;;5083986;28;20033;-63
2021/07/01 03:33:07;;;;;;;18.45;13.23;;;14.20;99.90;;;;;;5080130;28;20035;-61
2021/07/01 03:35:32;;;;;;;21.13;13.48;;;14.20;99.90;;;;;;5084470;28;20063;-63
2021/07/01 03:37:58;;;;;;;18.42;12.45;;;14.30;99.90;;;;;;5078890;28;20066;-63
2021/07/01 03:40:24;;;;;;;20.58;13.45;;;14.30;99.90;;;;;;5076317;28;20024;-62
2021/07/01 03:42:49;;;;;;;22.33;14.30;;;14.30;99.90;;;;;;5074032;28;20051;-59
2021/07/01 03:45:15;;;;;;;22.23;13.80;;;14.30;99.90;;;;;;5070235;28;20074;-63
2021/07/01 03:47:40;;;;;;;22.27;14.82;;;14.30;99.90;;;;;;5082277;28;20040;-60
2021/07/01 03:50:06;;;;;;;25.80;15.05;;;14.30;99.90;;;;;;5084353;28;20028;-58
2021/07/01 03:52:32;;;;;;;24.13;13.35;;;14.30;99.90;;;;;;5084135;28;20419;-61
2021/07/01 03:54:57;;;;;;;20.27;13.18;;;14.30;99.90;;;;;;5077329;28;20036;-63
2021/07/01 03:57:23;;;;;;;21.15;13.07;;;14.30;99.90;;;;;;5083904;28;20548;-64
2021/07/01 03:59:49;;;;;;;28.17;14.63;;;14.30;99.90;;;;;;5091992;28;20554;-61
2021/07/01 04:02:14;;;;;;;18.45;13.30;;;14.30;99.90;;;;;;5095348;28;20073;-57
2021/07/01 04:04:40;;;;;;;23.65;13.05;;;14.30;99.90;;;;;;5091109;28;20023;-60
2021/07/01 04:07:07;;;;;;;24.90;13.07;;;14.30;99.90;;;;;;5096785;28;20032;-63
2021/07/01 04:09:32;;;;;;;18.13;10.93;;;14.40;99.90;;;;;;5085225;28;20095;-62
2021/07/01 04:11:58;;;;;;;19.42;11.27;;;14.40;99.90;;;;;;5084457;28;20112;-64
2021/07/01 04:14:23;;;;;;;17.50;11.15;;;14.40;99.90;;;;;;5084312;28;20056;-61
2021/07/01 04:16:49;;;;;;;16.20;10.23;;;14.40;99.90;;;;;;5093923;28;20055;-61
2021/07/01 04:19:14;;;;;;;21.90;10.65;;;14.40;99.90;;;;;;5081574;28;20020;-61
2021/07/01 04:21:40;;;;;;;12.77;9.32;;;14.40;99.90;;;;;;5083938;28;20020;-63
2021/07/01 04:24:06;;;;;;;17.70;12.07;;;14.40;99.90;;;;;;5081073;28;20048;-60
2021/07/01 04:26:32;;;;;;;20.05;11.50;;;14.40;99.90;;;;;;5082596;28;20063;-63
2021/07/01 04:28:57;;;;;;;16.80;10.50;;;14.40;99.90;;;;;;5084343;28;20386;-61
2021/07/01 04:31:23;;;;;;;18.30;11.98;;;14.40;99.90;;;;;;5090890;28;20040;-64
2021/07/01 04:33:49;;;;;;;21.02;11.95;;;14.40;99.90;;;;;;5074191;28;20021;-62
2021/07/01 04:36:14;;;;;;;23.50;13.73;;;14.40;99.90;;;;;;5086195;28;20094;-62
2021/07/01 04:38:40;;;;;;;22.00;13.65;;;14.50;99.90;;;;;;5079715;28;20020;-62
2021/07/01 04:41:06;;;;;;;28.73;14.57;;;14.40;99.90;;;;;;5087229;28;20121;-63
2021/07/01 04:43:31;;;;;;;28.75;18.05;;;14.50;99.90;;;;;;5075706;28;20107;-63
2021/07/01 04:45:57;;;;;;;32.55;18.02;;;14.40;99.90;;;;;;5092444;28;20031;-63
2021/07/01 04:48:22;;;;;;;28.90;17.38;;;14.30;99.90;;;;;;5082326;28;20080;-63
2021/07/01 04:50:48;;;;;;;42.47;19.42;;;14.30;99.90;;;;;;5078509;28;20161;-64
2021/07/01 04:53:13;;;;;;;37.20;19.38;;;14.40;99.90;;;;;;5073505;28;20475;-64
2021/07/01 04:55:39;;;;;;;38.90;18.48;;;14.40;99.90;;;;;;5086590;28;20020;-63
2021/07/01 04:58:05;;;;;;;35.60;20.13;;;14.40;99.90;;;;;;5076044;28;20401;-66
2021/07/01 05:00:30;;;;;;;40.83;21.42;;;14.40;99.90;;;;;;5083346;28;20023;-64
2021/07/01 05:02:56;;;;;;;38.90;20.33;;;14.40;99.90;;;;;;5087591;28;20113;-62
2021/07/01 05:05:21;;;;;;;41.15;20.85;;;14.40;99.90;;;;;;5083921;28;20044;-64
2021/07/01 05:07:47;;;;;;;39.90;21.58;;;14.30;99.90;;;;;;5084174;28;20029;-62
2021/07/01 05:10:14;;;;;;;36.20;19.98;;;14.30;99.90;;;;;;5084486;28;20123;-65
2021/07/01 05:12:40;;;;;;;43.45;21.45;;;14.30;99.90;;;;;;5089814;28;20115;-64
2021/07/01 05:15:07;;;;;;;44.22;22.90;;;14.20;99.90;;;;;;5086098;28;20105;-63
2021/07/01 05:17:36;;;;;;;43.13;22.58;;;14.30;99.90;;;;;;5087242;28;20059;-65
2021/07/01 05:20:03;;;;;;;41.05;21.58;;;14.30;99.90;;;;;;5068372;28;20045;-64
2021/07/01 05:22:29;;;;;;;39.58;21.10;;;14.30;99.90;;;;;;5088331;28;20048;-61
2021/07/01 05:24:54;;;;;;;44.90;20.25;;;14.40;99.90;;;;;;5083642;28;20499;-63
2021/07/01 05:27:20;;;;;;;40.22;21.10;;;14.40;99.90;;;;;;5085943;28;20055;-64
2021/07/01 05:29:45;;;;;;;42.42;21.90;;;14.40;99.90;;;;;;5089505;28;20065;-64
2021/07/01 05:32:13;;;;;;;40.83;20.63;;;14.40;99.90;;;;;;5083344;28;20103;-62
2021/07/01 05:34:39;;;;;;;47.35;20.92;;;14.40;99.90;;;;;;5084261;28;20035;-62
2021/07/01 05:37:05;;;;;;;37.83;20.50;;;14.40;99.90;;;;;;5085699;28;20020;-61
2021/07/01 05:39:30;;;;;;;45.63;20.83;;;14.40;99.90;;;;;;5081875;28;20111;-63
2021/07/01 05:41:56;;;;;;;39.22;20.42;;;14.30;99.90;;;;;;5085655;28;20051;-61
2021/07/01 05:44:21;;;;;;;39.22;20.88;;;14.30;99.90;;;;;;5083007;28;20395;-62
2021/07/01 05:46:47;;;;;;;35.17;18.48;;;14.40;99.90;;;;;;5081268;28;20024;-63
2021/07/01 05:49:13;;;;;;;45.55;19.83;;;14.40;99.90;;;;;;5076844;28;20406;-64
2021/07/01 05:51:39;;;;;;;43.20;17.50;;;14.40;99.90;;;;;;5083408;28;20028;-63
2021/07/01 05:56:36;;;;;;;37.28;17.50;;;14.40;99.90;;;;;;5082481;28;20052;-61
2021/07/01 05:59:09;;;;;;;36.90;15.70;;;14.50;99.90;;;;;;5081582;28;20024;-67
2021/07/01 06:01:36;;;;;;;34.22;17.00;;;14.60;99.90;;;;;;5077964;28;20024;-63
2021/07/01 06:04:06;;;;;;;38.75;17.02;;;14.70;99.90;;;;;;5074704;28;20399;-62
2021/07/01 06:06:35;;;;;;;43.13;16.67;;;14.70;99.90;;;;;;5081131;28;20024;-63
2021/07/01 06:09:03;;;;;;;41.47;17.40;;;14.50;99.90;;;;;;5086410;28;20024;-62
2021/07/01 06:11:30;;;;;;;38.90;16.88;;;14.50;99.90;;;;;;5080171;28;20491;-63
2021/07/01 06:13:55;;;;;;;40.38;16.42;;;14.50;99.90;;;;;;5075537;28;20276;-62
2021/07/01 06:16:25;;;;;;;37.03;14.93;;;14.50;99.90;;;;;;5080757;28;20074;-64
2021/07/01 06:18:52;;;;;;;35.10;14.63;;;14.60;99.90;;;;;;5082872;28;20056;-64
2021/07/01 06:21:18;;;;;;;38.22;16.00;;;14.60;99.90;;;;;;5084749;28;20046;-63
2021/07/01 06:23:46;;;;;;;33.05;14.20;;;14.60;99.90;;;;;;5079034;28;20468;-62
2021/07/01 06:26:14;;;;;;;35.08;13.65;;;14.60;99.90;;;;;;5082982;28;20020;-61
2021/07/01 06:28:42;;;;;;;42.10;13.88;;;14.50;99.90;;;;;;5072715;28;20040;-62
2021/07/01 06:31:08;;;;;;;28.90;14.27;;;14.50;99.90;;;;;;5080359;28;20406;-63
2021/07/01 06:33:35;;;;;;;39.28;13.45;;;14.40;99.90;;;;;;5078671;28;20028;-64
2021/07/01 06:36:01;;;;;;;39.05;13.20;;;14.40;99.90;;;;;;5080772;28;20039;-61
2021/07/01 06:38:30;;;;;;;36.63;12.95;;;14.50;99.90;;;;;;5087452;28;20062;-64
2021/07/01 06:40:57;;;;;;;29.77;12.27;;;14.60;99.90;;;;;;5078001;28;20024;-63
2021/07/01 06:43:25;;;;;;;23.40;12.57;;;14.70;99.90;;;;;;5084725;28;20495;-64
2021/07/01 06:45:55;;;;;;;31.48;14.05;;;14.50;99.90;;;;;;5077626;28;20107;-61
2021/07/01 06:48:21;;;;;;;33.83;12.48;;;14.60;99.90;;;;;;5081047;28;20571;-63
2021/07/01 06:50:53;;;;;;;29.48;12.32;;;14.60;99.90;;;;;;5081217;28;20034;-61
2021/07/01 06:53:21;;;;;;;34.05;11.65;;;14.60;99.90;;;;;;5070346;28;20025;-61
2021/07/01 06:55:50;;;;;;;27.52;11.63;;;14.60;99.90;;;;;;5080263;28;20039;-62
2021/07/01 06:58:16;;;;;;;31.80;12.27;;;14.60;99.90;;;;;;5086977;28;20036;-61
2021/07/01 07:00:41;;;;;;;28.23;11.82;;;14.60;99.90;;;;;;5084424;28;20532;-62
2021/07/01 07:03:07;;;;;;;38.13;13.98;;;14.50;99.90;;;;;;5084310;28;20028;-61
2021/07/01 07:05:33;;;;;;;31.27;12.38;;;14.60;99.90;;;;;;5078115;28;20077;-64
2021/07/01 07:07:59;;;;;;;27.70;11.35;;;14.60;99.90;;;;;;5082629;28;20028;-62
2021/07/01 07:10:24;;;;;;;28.55;10.63;;;14.60;99.90;;;;;;5077204;28;20659;-62
2021/07/01 07:12:54;;;;;;;26.95;11.25;;;14.60;99.90;;;;;;5074360;28;20028;-61
2021/07/01 07:15:29;;;;;;;22.95;10.73;;;14.50;99.90;;;;;;5071740;28;20025;-62
2021/07/01 07:18:04;;;;;;;21.38;10.18;;;14.50;99.90;;;;;;5078431;28;20044;-64
2021/07/01 07:20:31;;;;;;;21.10;9.40;;;14.40;99.90;;;;;;5077097;28;20476;-61
2021/07/01 07:22:59;;;;;;;28.08;10.90;;;14.40;99.90;;;;;;5076183;28;20266;-60
2021/07/01 07:25:27;;;;;;;27.90;10.65;;;14.30;99.90;;;;;;5082461;28;20076;-63
2021/07/01 07:28:00;;;;;;;34.65;11.15;;;14.30;99.90;;;;;;5066811;28;20177;-62
2021/07/01 07:30:27;;;;;;;26.83;10.70;;;14.30;99.90;;;;;;5089265;28;20031;-63
2021/07/01 07:32:55;;;;;;;27.90;11.32;;;14.30;99.90;;;;;;5080602;28;20048;-61
2021/07/01 07:35:22;;;;;;;25.38;10.73;;;14.40;99.90;;;;;;5079895;28;20029;-63
2021/07/01 07:37:48;;;;;;;27.23;10.75;;;14.50;99.90;;;;;;5074563;28;20161;-63
2021/07/01 07:40:13;;;;;;;146.73;20.52;;;14.60;99.90;;;;;;5081124;28;20424;-60
2021/07/01 07:42:43;;;;;;;46.05;12.27;;;14.60;99.90;;;;;;5081400;28;20031;-64
2021/07/01 07:45:09;;;;;;;23.25;7.95;;;14.60;99.90;;;;;;5077288;28;20372;-61
2021/07/01 07:47:35;;;;;;;21.73;8.13;;;14.70;99.90;;;;;;5082404;28;20041;-63
2021/07/01 07:50:00;;;;;;;20.05;7.63;;;14.80;99.90;;;;;;5074269;28;20052;-64
2021/07/01 07:52:30;;;;;;;21.25;7.90;;;15.00;99.90;;;;;;5074412;28;20051;-63
2021/07/01 07:55:02;;;;;;;27.65;8.38;;;15.10;99.90;;;;;;5072812;28;20462;-63
2021/07/01 07:57:28;;;;;;;39.05;9.07;;;15.10;99.90;;;;;;5079433;28;20016;-63
2021/07/01 07:59:57;;;;;;;19.00;7.35;;;15.10;99.90;;;;;;5085262;28;20108;-61
2021/07/01 08:02:40;;;;;;;22.27;9.23;;;14.90;99.90;;;;;;5082874;28;20027;-63
2021/07/01 08:05:07;;;;;;;21.33;8.00;;;15.00;99.90;;;;;;5085491;28;20020;-61
2021/07/01 08:07:35;;;;;;;27.98;8.85;;;15.00;99.90;;;;;;5088294;28;20121;-64
2021/07/01 08:10:07;;;;;;;23.63;8.73;;;15.10;99.90;;;;;;5083131;28;20034;-62
2021/07/01 08:12:33;;;;;;;25.35;9.05;;;15.10;99.90;;;;;;5084756;28;20111;-62
2021/07/01 08:15:00;;;;;;;20.13;9.07;;;15.30;99.90;;;;;;5085893;28;20055;-61
2021/07/01 08:17:27;;;;;;;23.83;8.65;;;15.40;99.90;;;;;;5091953;28;20028;-64
2021/07/01 08:19:53;;;;;;;27.42;9.30;;;15.40;99.90;;;;;;5087254;28;20012;-62
2021/07/01 08:22:19;;;;;;;26.52;9.68;;;15.40;99.90;;;;;;5077379;28;20033;-64
2021/07/01 08:24:50;;;;;;;24.05;8.77;;;15.50;99.90;;;;;;5072536;28;20032;-63
2021/07/01 08:27:18;;;;;;;24.88;9.00;;;15.50;99.90;;;;;;5079432;28;20708;-62
2021/07/01 08:29:45;;;;;;;15.25;7.88;;;15.40;99.90;;;;;;5085915;28;20055;-61
2021/07/01 08:32:11;;;;;;;20.38;10.07;;;15.40;99.90;;;;;;5083903;28;20020;-62
2021/07/01 08:34:40;;;;;;;24.45;9.73;;;15.40;99.90;;;;;;5072581;28;20028;-60
2021/07/01 08:37:06;;;;;;;18.85;9.15;;;15.30;99.90;;;;;;5085876;28;20028;-59
2021/07/01 08:39:33;;;;;;;17.88;8.05;;;15.30;99.90;;;;;;5082870;28;20545;-61
2021/07/01 08:42:02;;;;;;;22.27;9.30;;;15.30;99.90;;;;;;5075497;28;20035;-62
2021/07/01 08:44:42;;;;;;;30.00;9.50;;;15.30;99.90;;;;;;5072280;28;20040;-62
2021/07/01 08:47:16;;;;;;;18.15;8.32;;;15.20;99.90;;;;;;5085195;28;20073;-63
2021/07/01 08:49:55;;;;;;;20.58;8.63;;;15.30;99.90;;;;;;5078954;28;20032;-63
2021/07/01 08:52:34;;;;;;;19.58;8.00;;;15.30;99.90;;;;;;5073283;28;20028;-62
2021/07/01 08:55:05;;;;;;;22.58;8.35;;;15.40;99.90;;;;;;5084064;28;20029;-63
2021/07/01 08:57:35;;;;;;;23.90;8.18;;;15.50;99.90;;;;;;5060899;28;20036;-63
2021/07/01 09:00:08;;;;;;;17.58;8.43;;;15.40;99.90;;;;;;5079607;28;20027;-61
2021/07/01 09:02:40;;;;;;;15.40;7.60;;;15.40;99.90;;;;;;5084845;28;20430;-63
2021/07/01 09:05:15;;;;;;;15.93;7.68;;;15.60;99.90;;;;;;5079171;28;20118;-60
2021/07/01 09:07:47;;;;;;;14.05;6.63;;;15.70;99.90;;;;;;5082060;28;20031;-62
2021/07/01 09:10:15;;;;;;;18.55;7.97;;;15.90;99.90;;;;;;5090571;28;20483;-62
2021/07/01 09:12:52;;;;;;;15.73;7.15;;;16.10;99.90;;;;;;5072016;28;20147;-63
2021/07/01 09:15:19;;;;;;;16.10;6.35;;;16.30;99.90;;;;;;5074039;28;20028;-62
2021/07/01 09:17:48;;;;;;;14.23;6.63;;;16.40;99.90;;;;;;5078975;28;20166;-61
2021/07/01 09:20:19;;;;;;;17.83;6.47;;;16.20;99.90;;;;;;5079425;28;20026;-61
2021/07/01 09:22:46;;;;;;;17.90;7.72;;;15.90;99.90;;;;;;5092154;28;20035;-64
2021/07/01 09:25:13;;;;;;;15.68;7.55;;;15.90;99.90;;;;;;5083755;28;20036;-63
2021/07/01 09:27:44;;;;;;;15.80;7.25;;;15.60;99.90;;;;;;5081418;28;20082;-62
2021/07/01 09:30:11;;;;;;;17.15;7.93;;;15.80;99.90;;;;;;5083951;28;20024;-61
2021/07/01 09:32:38;;;;;;;18.75;7.90;;;15.90;99.90;;;;;;5074576;28;20562;-59
2021/07/01 09:35:04;;;;;;;22.05;8.77;;;16.10;99.90;;;;;;5078171;28;20059;-62
2021/07/01 09:37:39;;;;;;;20.13;8.98;;;16.10;99.90;;;;;;5078598;28;20459;-63
2021/07/01 09:40:06;;;;;;;25.77;9.90;;;16.20;99.90;;;;;;5086207;28;20020;-60
2021/07/01 09:42:33;;;;;;;17.90;9.45;;;15.90;99.90;;;;;;5079542;28;20028;-59
2021/07/01 09:45:08;;;;;;;20.95;9.43;;;15.80;99.90;;;;;;5070972;28;20446;-61
2021/07/01 09:47:37;;;;;;;24.02;9.90;;;15.70;99.90;;;;;;5078925;28;20487;-60
2021/07/01 09:50:04;;;;;;;21.00;10.07;;;15.60;99.90;;;;;;5071174;28;20150;-57
2021/07/01 09:52:34;;;;;;;26.40;11.23;;;15.30;99.90;;;;;;5086715;28;20115;-56
2021/07/01 09:55:02;;;;;;;25.10;10.73;;;15.20;99.90;;;;;;5081956;28;20028;-60
2021/07/01 09:57:29;;;;;;;21.60;9.25;;;15.40;99.90;;;;;;5089456;28;20379;-61
2021/07/01 09:59:58;;;;;;;17.92;8.77;;;15.40;99.90;;;;;;5090696;28;20027;-59
2021/07/01 10:02:25;;;;;;;20.33;9.77;;;15.50;99.90;;;;;;5090418;28;20054;-61
2021/07/01 10:04:52;;;;;;;24.27;10.15;;;15.60;99.90;;;;;;5083579;28;20097;-59
2021/07/01 10:07:22;;;;;;;16.35;8.90;;;15.60;99.90;;;;;;5090213;28;20028;-61
2021/07/01 10:09:53;;;;;;;18.52;9.80;;;15.50;99.90;;;;;;5090443;28;20514;-62
2021/07/01 10:12:28;;;;;;;19.10;9.15;;;15.40;99.90;;;;;;5090104;28;20051;-61
2021/07/01 10:14:56;;;;;;;22.63;9.30;;;15.30;99.90;;;;;;5090843;28;20083;-62
2021/07/01 10:17:24;;;;;;;15.63;7.95;;;15.30;99.90;;;;;;5090463;28;20089;-62
2021/07/01 10:20:01;;;;;;;18.92;8.85;;;15.30;99.90;;;;;;5089425;28;20024;-61
2021/07/01 10:22:38;;;;;;;14.10;9.25;;;15.40;99.90;;;;;;5085898;28;20051;-61
2021/07/01 10:25:04;;;;;;;21.40;9.52;;;15.40;99.90;;;;;;5089725;28;20385;-62
2021/07/01 10:27:41;;;;;;;19.98;8.35;;;15.40;99.90;;;;;;5090063;28;20032;-63
2021/07/01 10:30:16;;;;;;;18.90;9.10;;;15.40;99.90;;;;;;5090093;28;20368;-62
2021/07/01 10:32:56;;;;;;;19.45;9.18;;;15.40;99.90;;;;;;5089903;28;20024;-62
2021/07/01 10:35:24;;;;;;;28.38;10.93;;;15.50;99.90;;;;;;5083370;28;20099;-63
2021/07/01 10:38:05;;;;;;;27.95;11.40;;;15.40;99.90;;;;;;5083560;28;20032;-62
2021/07/01 10:40:34;;;;;;;25.05;10.20;;;15.10;99.90;;;;;;5085199;28;20069;-60
2021/07/01 10:43:00;;;;;;;24.50;10.27;;;15.10;99.90;;;;;;5089607;28;20024;-59
2021/07/01 10:45:26;;;;;;;21.38;10.20;;;15.20;99.90;;;;;;5089058;28;20066;-64
2021/07/01 10:47:54;;;;;;;27.13;11.15;;;15.20;99.90;;;;;;5089782;28;20403;-61
2021/07/01 10:50:23;;;;;;;20.45;10.38;;;15.20;99.90;;;;;;5088959;28;20699;-63
2021/07/01 10:52:49;;;;;;;18.73;8.20;;;15.20;99.90;;;;;;5089161;28;20514;-63
2021/07/01 10:55:16;;;;;;;14.93;8.18;;;15.30;99.90;;;;;;5089586;28;20079;-63
2021/07/01 10:58:00;;;;;;;17.65;8.35;;;15.30;99.90;;;;;;5089039;28;20035;-62
2021/07/01 11:00:42;;;;;;;24.13;8.63;;;15.30;99.90;;;;;;5089061;28;20020;-62
2021/07/01 11:03:20;;;;;;;20.73;8.10;;;15.40;99.90;;;;;;5089396;28;20024;-61
2021/07/01 11:05:46;;;;;;;16.25;7.82;;;15.50;99.90;;;;;;5089351;28;20086;-62
2021/07/01 11:08:31;;;;;;;18.33;7.43;;;15.60;99.90;;;;;;5089502;28;20089;-61
2021/07/01 11:10:59;;;;;;;15.23;7.07;;;15.70;99.90;;;;;;5087525;28;20035;-58
2021/07/01 11:13:26;;;;;;;12.95;7.60;;;15.80;99.90;;;;;;5094055;28;20032;-61
2021/07/01 11:16:15;;;;;;;14.70;7.18;;;15.90;99.90;;;;;;5093062;28;20028;-62
2021/07/01 11:18:43;;;;;;;14.65;7.20;;;16.00;99.90;;;;;;5093332;28;20111;-62
2021/07/01 11:21:11;;;;;;;20.55;8.05;;;16.10;99.90;;;;;;5092960;28;20032;-63
2021/07/01 11:23:38;;;;;;;16.20;6.35;;;16.20;99.90;;;;;;5092190;28;20020;-62
2021/07/01 11:26:24;;;;;;;17.58;7.18;;;16.20;99.90;;;;;;5092966;28;20081;-62
2021/07/01 11:28:51;;;;;;;16.98;6.32;;;16.20;99.90;;;;;;5093380;28;20028;-62
2021/07/01 11:31:17;;;;;;;18.02;7.13;;;16.20;99.90;;;;;;5093159;28;20032;-63
2021/07/01 11:33:50;;;;;;;20.73;7.55;;;16.10;99.90;;;;;;5093017;28;20111;-62
2021/07/01 11:36:18;;;;;;;20.45;7.35;;;15.90;99.90;;;;;;5093400;28;20403;-63
2021/07/01 11:38:45;;;;;;;16.02;7.30;;;15.90;99.90;;;;;;5093123;28;20086;-62
2021/07/01 11:41:11;;;;;;;23.13;8.90;;;15.90;99.90;;;;;;5093064;28;20088;-62
2021/07/01 11:43:40;;;;;;;18.65;7.80;;;15.90;99.90;;;;;;5092811;28;20468;-63
2021/07/01 11:46:06;;;;;;;18.50;8.43;;;15.90;99.90;;;;;;5092489;28;20028;-62
2021/07/01 11:48:34;;;;;;;21.52;8.85;;;15.90;99.90;;;;;;5092501;28;20058;-63
2021/07/01 11:51:01;;;;;;;16.23;7.75;;;15.90;99.90;;;;;;5089889;28;20069;-64
2021/07/01 11:53:27;;;;;;;18.17;7.72;;;15.80;99.90;;;;;;5092903;28;20130;-65
2021/07/01 11:55:57;;;;;;;23.38;9.27;;;15.80;99.90;;;;;;5092308;28;20024;-65
2021/07/01 11:58:24;;;;;;;14.48;7.68;;;15.70;99.90;;;;;;5091950;28;20574;-63
2021/07/01 12:00:49;;;;;;;15.63;7.50;;;15.60;99.90;;;;;;5089112;28;20031;-62
2021/07/01 12:03:15;;;;;;;16.67;7.25;;;15.70;99.90;;;;;;5088835;28;20110;-64
2021/07/01 12:05:47;;;;;;;15.63;7.32;;;15.70;99.90;;;;;;5092557;28;20020;-64
2021/07/01 12:08:13;;;;;;;19.38;7.80;;;15.70;99.90;;;;;;5092339;28;20035;-63
2021/07/01 12:10:39;;;;;;;12.48;6.97;;;15.80;99.90;;;;;;5095577;28;20478;-64
2021/07/01 12:13:40;;;;;;;16.35;6.93;;;15.80;99.90;;;;;;5092543;28;20084;-63
2021/07/01 12:16:07;;;;;;;14.65;6.70;;;15.90;99.90;;;;;;5005063;28;20105;-64
2021/07/01 12:18:57;;;;;;;14.52;6.95;;;15.90;99.90;;;;;;5071739;28;20040;-63
2021/07/01 12:21:24;;;;;;;18.50;7.22;;;15.90;99.90;;;;;;5091238;28;20024;-65
2021/07/01 12:23:58;;;;;;;17.83;6.95;;;15.80;99.90;;;;;;5067598;28;20459;-64
2021/07/01 12:26:31;;;;;;;12.55;7.10;;;15.90;99.90;;;;;;5092236;28;20020;-63
2021/07/01 12:28:57;;;;;;;17.48;8.05;;;15.90;99.90;;;;;;5091999;28;20035;-60
2021/07/01 12:31:24;;;;;;;14.23;8.27;;;16.00;99.90;;;;;;5085489;28;20028;-65
2021/07/01 12:33:57;;;;;;;15.73;7.90;;;15.90;99.90;;;;;;5091458;28;20043;-63
2021/07/01 12:36:40;;;;;;;16.77;8.02;;;15.90;99.90;;;;;;5092091;28;20028;-64
2021/07/01 12:39:12;;;;;;;19.70;8.07;;;16.00;99.90;;;;;;5089776;28;20457;-64
2021/07/01 12:41:56;;;;;;;11.73;7.88;;;16.10;99.90;;;;;;5090714;28;20028;-61
2021/07/01 12:44:22;;;;;;;15.68;7.82;;;16.10;99.90;;;;;;5082705;28;20552;-64
2021/07/01 12:46:50;;;;;;;21.50;8.95;;;16.10;99.90;;;;;;5090165;28;20031;-63
2021/07/01 12:49:16;;;;;;;21.08;9.27;;;16.10;99.90;;;;;;5072748;28;20119;-63
2021/07/01 12:51:54;;;;;;;20.27;10.30;;;16.20;99.90;;;;;;5091179;28;20036;-63
2021/07/01 12:54:22;;;;;;;23.92;9.95;;;16.10;99.90;;;;;;5088904;28;20517;-64